Terminal Aerodrome Forecast
Issued by NWS Wilmington, OH

Current Version | Previous Version | Graphics & Text | Print | Product List | Glossary On
Versions: 1 2 3 4 5 6 7 8 9 10 11 12 13 14 15 16 17
029
FTUS41 KILN 220243 AAA
TAFCMH
TAF AMD
KCMH 220243Z 2203/2224 33015G20KT P6SM BKN150
     FM220400 36013G18KT P6SM SKC
     FM221200 01011KT P6SM SKC=

USA.gov is the U.S. government's official web portal to all federal, state and local government web resources and services.